sensor_id;sensor_type;location;lat;lon;timestamp;P1;durP1;ratioP1;P2;durP2;ratioP2
73512;SDS011;61754;55.008;73.348;2022-08-19T00:01:43;11.25;;;3.22;;
73512;SDS011;61754;55.008;73.348;2022-08-19T00:04:10;7.80;;;2.17;;
73512;SDS011;61754;55.008;73.348;2022-08-19T00:06:37;12.05;;;2.75;;
73512;SDS011;61754;55.008;73.348;2022-08-19T00:09:23;7.57;;;2.42;;
73512;SDS011;61754;55.008;73.348;2022-08-19T00:11:50;11.15;;;1.80;;
73512;SDS011;61754;55.008;73.348;2022-08-19T00:14:16;4.68;;;1.55;;
73512;SDS011;61754;55.008;73.348;2022-08-19T00:16:43;5.38;;;1.40;;
73512;SDS011;61754;55.008;73.348;2022-08-19T00:19:20;3.60;;;1.00;;
73512;SDS011;61754;55.008;73.348;2022-08-19T00:21:46;4.45;;;1.40;;
73512;SDS011;61754;55.008;73.348;2022-08-19T00:24:13;1.42;;;0.80;;
73512;SDS011;61754;55.008;73.348;2022-08-19T00:26:41;1.38;;;0.75;;
73512;SDS011;61754;55.008;73.348;2022-08-19T00:29:08;1.10;;;0.75;;
73512;SDS011;61754;55.008;73.348;2022-08-19T00:31:34;2.92;;;0.60;;
73512;SDS011;61754;55.008;73.348;2022-08-19T00:34:00;0.85;;;0.70;;
73512;SDS011;61754;55.008;73.348;2022-08-19T00:36:29;1.35;;;0.40;;
73512;SDS011;61754;55.008;73.348;2022-08-19T00:38:55;1.27;;;0.77;;
73512;SDS011;61754;55.008;73.348;2022-08-19T00:41:22;1.63;;;0.68;;
73512;SDS011;61754;55.008;73.348;2022-08-19T00:43:59;1.90;;;0.50;;
73512;SDS011;61754;55.008;73.348;2022-08-19T00:46:45;3.58;;;0.57;;
73512;SDS011;61754;55.008;73.348;2022-08-19T00:49:13;1.00;;;0.60;;
73512;SDS011;61754;55.008;73.348;2022-08-19T00:51:40;5.30;;;0.80;;
73512;SDS011;61754;55.008;73.348;2022-08-19T00:54:06;0.60;;;0.50;;
73512;SDS011;61754;55.008;73.348;2022-08-19T00:56:32;3.85;;;0.75;;
73512;SDS011;61754;55.008;73.348;2022-08-19T00:58:59;4.40;;;0.60;;
73512;SDS011;61754;55.008;73.348;2022-08-19T01:01:25;0.77;;;0.57;;
73512;SDS011;61754;55.008;73.348;2022-08-19T01:03:51;3.67;;;0.50;;
73512;SDS011;61754;55.008;73.348;2022-08-19T01:06:22;1.95;;;0.60;;
73512;SDS011;61754;55.008;73.348;2022-08-19T01:08:48;1.35;;;0.70;;
73512;SDS011;61754;55.008;73.348;2022-08-19T01:11:19;5.03;;;1.00;;
73512;SDS011;61754;55.008;73.348;2022-08-19T01:13:45;0.80;;;0.80;;
73512;SDS011;61754;55.008;73.348;2022-08-19T01:16:15;2.10;;;0.75;;
73512;SDS011;61754;55.008;73.348;2022-08-19T01:18:42;2.67;;;1.50;;
73512;SDS011;61754;55.008;73.348;2022-08-19T01:21:22;3.53;;;1.52;;
73512;SDS011;61754;55.008;73.348;2022-08-19T01:23:54;8.13;;;2.13;;
73512;SDS011;61754;55.008;73.348;2022-08-19T01:26:24;5.65;;;2.00;;
73512;SDS011;61754;55.008;73.348;2022-08-19T01:28:59;14.93;;;2.75;;
73512;SDS011;61754;55.008;73.348;2022-08-19T01:31:32;10.82;;;3.28;;
73512;SDS011;61754;55.008;73.348;2022-08-19T01:33:58;6.75;;;2.65;;
73512;SDS011;61754;55.008;73.348;2022-08-19T01:36:26;6.57;;;3.33;;
73512;SDS011;61754;55.008;73.348;2022-08-19T01:38:52;11.45;;;2.83;;
73512;SDS011;61754;55.008;73.348;2022-08-19T01:41:19;9.07;;;2.78;;
73512;SDS011;61754;55.008;73.348;2022-08-19T01:43:55;13.60;;;2.75;;
73512;SDS011;61754;55.008;73.348;2022-08-19T01:46:21;5.53;;;2.42;;
73512;SDS011;61754;55.008;73.348;2022-08-19T01:48:57;15.18;;;3.90;;
73512;SDS011;61754;55.008;73.348;2022-08-19T01:51:23;7.05;;;3.65;;
73512;SDS011;61754;55.008;73.348;2022-08-19T01:53:50;8.90;;;2.88;;
73512;SDS011;61754;55.008;73.348;2022-08-19T01:56:17;7.53;;;2.80;;
73512;SDS011;61754;55.008;73.348;2022-08-19T01:58:51;9.55;;;3.13;;
73512;SDS011;61754;55.008;73.348;2022-08-19T02:01:19;13.77;;;2.92;;
73512;SDS011;61754;55.008;73.348;2022-08-19T02:03:45;6.55;;;2.60;;
73512;SDS011;61754;55.008;73.348;2022-08-19T02:06:17;14.40;;;3.50;;
73512;SDS011;61754;55.008;73.348;2022-08-19T02:08:47;15.32;;;2.67;;
73512;SDS011;61754;55.008;73.348;2022-08-19T02:11:19;10.57;;;2.70;;
73512;SDS011;61754;55.008;73.348;2022-08-19T02:13:45;7.97;;;2.05;;
73512;SDS011;61754;55.008;73.348;2022-08-19T02:16:11;11.70;;;3.00;;
73512;SDS011;61754;55.008;73.348;2022-08-19T02:18:47;7.57;;;3.22;;
73512;SDS011;61754;55.008;73.348;2022-08-19T02:21:17;9.60;;;2.28;;
73512;SDS011;61754;55.008;73.348;2022-08-19T02:23:44;4.80;;;1.90;;
73512;SDS011;61754;55.008;73.348;2022-08-19T02:26:20;9.68;;;1.83;;
73512;SDS011;61754;55.008;73.348;2022-08-19T02:28:47;7.40;;;1.92;;
73512;SDS011;61754;55.008;73.348;2022-08-19T02:31:15;6.18;;;1.63;;
73512;SDS011;61754;55.008;73.348;2022-08-19T02:33:41;7.43;;;1.50;;
73512;SDS011;61754;55.008;73.348;2022-08-19T02:36:08;3.13;;;1.30;;
73512;SDS011;61754;55.008;73.348;2022-08-19T02:38:35;4.70;;;1.67;;
73512;SDS011;61754;55.008;73.348;2022-08-19T02:41:07;12.13;;;1.92;;
73512;SDS011;61754;55.008;73.348;2022-08-19T02:43:35;5.60;;;1.90;;
73512;SDS011;61754;55.008;73.348;2022-08-19T02:46:10;6.03;;;2.20;;
73512;SDS011;61754;55.008;73.348;2022-08-19T02:48:37;11.00;;;3.25;;
73512;SDS011;61754;55.008;73.348;2022-08-19T02:51:03;11.48;;;2.35;;
73512;SDS011;61754;55.008;73.348;2022-08-19T02:53:29;3.92;;;2.33;;
73512;SDS011;61754;55.008;73.348;2022-08-19T02:55:56;10.30;;;2.63;;
73512;SDS011;61754;55.008;73.348;2022-08-19T02:58:31;10.10;;;2.42;;
73512;SDS011;61754;55.008;73.348;2022-08-19T03:00:57;10.65;;;2.65;;
73512;SDS011;61754;55.008;73.348;2022-08-19T03:03:23;11.43;;;3.30;;
73512;SDS011;61754;55.008;73.348;2022-08-19T03:06:03;8.63;;;3.25;;
73512;SDS011;61754;55.008;73.348;2022-08-19T03:08:29;6.80;;;2.60;;
73512;SDS011;61754;55.008;73.348;2022-08-19T03:11:01;10.88;;;2.65;;
73512;SDS011;61754;55.008;73.348;2022-08-19T03:13:36;9.95;;;2.25;;
73512;SDS011;61754;55.008;73.348;2022-08-19T03:16:04;11.77;;;2.90;;
73512;SDS011;61754;55.008;73.348;2022-08-19T03:18:40;7.90;;;2.30;;
73512;SDS011;61754;55.008;73.348;2022-08-19T03:21:06;9.80;;;3.20;;
73512;SDS011;61754;55.008;73.348;2022-08-19T03:23:37;8.75;;;2.30;;
73512;SDS011;61754;55.008;73.348;2022-08-19T03:26:04;6.63;;;2.38;;
73512;SDS011;61754;55.008;73.348;2022-08-19T03:28:31;5.95;;;2.33;;
73512;SDS011;61754;55.008;73.348;2022-08-19T03:31:02;5.75;;;1.95;;
73512;SDS011;61754;55.008;73.348;2022-08-19T03:33:39;14.77;;;2.53;;
73512;SDS011;61754;55.008;73.348;2022-08-19T03:36:17;7.13;;;2.08;;
73512;SDS011;61754;55.008;73.348;2022-08-19T03:38:47;5.35;;;1.77;;
73512;SDS011;61754;55.008;73.348;2022-08-19T03:41:15;8.63;;;1.85;;
73512;SDS011;61754;55.008;73.348;2022-08-19T03:43:42;7.93;;;1.85;;
73512;SDS011;61754;55.008;73.348;2022-08-19T03:46:10;4.75;;;1.80;;
73512;SDS011;61754;55.008;73.348;2022-08-19T03:48:37;7.68;;;1.50;;
73512;SDS011;61754;55.008;73.348;2022-08-19T03:51:18;7.82;;;2.05;;
73512;SDS011;61754;55.008;73.348;2022-08-19T03:53:58;3.38;;;1.88;;
73512;SDS011;61754;55.008;73.348;2022-08-19T03:56:24;7.53;;;1.80;;
73512;SDS011;61754;55.008;73.348;2022-08-19T03:59:03;5.72;;;1.63;;
73512;SDS011;61754;55.008;73.348;2022-08-19T04:01:30;3.40;;;1.52;;
73512;SDS011;61754;55.008;73.348;2022-08-19T04:03:56;3.72;;;2.10;;
73512;SDS011;61754;55.008;73.348;2022-08-19T04:06:24;3.60;;;1.88;;
73512;SDS011;61754;55.008;73.348;2022-08-19T04:09:01;3.67;;;1.65;;
73512;SDS011;61754;55.008;73.348;2022-08-19T04:11:29;5.43;;;1.73;;
73512;SDS011;61754;55.008;73.348;2022-08-19T04:13:56;2.63;;;1.42;;
73512;SDS011;61754;55.008;73.348;2022-08-19T04:16:23;4.95;;;1.38;;
73512;SDS011;61754;55.008;73.348;2022-08-19T04:18:50;12.00;;;1.50;;
73512;SDS011;61754;55.008;73.348;2022-08-19T04:21:17;4.60;;;1.25;;
73512;SDS011;61754;55.008;73.348;2022-08-19T04:23:44;9.10;;;1.55;;
73512;SDS011;61754;55.008;73.348;2022-08-19T04:26:14;4.30;;;1.30;;
73512;SDS011;61754;55.008;73.348;2022-08-19T04:28:41;2.20;;;1.23;;
73512;SDS011;61754;55.008;73.348;2022-08-19T04:31:12;2.70;;;1.20;;
73512;SDS011;61754;55.008;73.348;2022-08-19T04:33:38;2.40;;;1.20;;
73512;SDS011;61754;55.008;73.348;2022-08-19T04:36:19;5.35;;;1.17;;
73512;SDS011;61754;55.008;73.348;2022-08-19T04:38:46;1.83;;;1.08;;
73512;SDS011;61754;55.008;73.348;2022-08-19T04:41:13;7.53;;;1.48;;
73512;SDS011;61754;55.008;73.348;2022-08-19T04:43:57;2.95;;;1.33;;
73512;SDS011;61754;55.008;73.348;2022-08-19T04:46:23;1.98;;;1.38;;
73512;SDS011;61754;55.008;73.348;2022-08-19T04:48:49;3.60;;;0.95;;
73512;SDS011;61754;55.008;73.348;2022-08-19T04:51:15;6.72;;;2.00;;
73512;SDS011;61754;55.008;73.348;2022-08-19T04:53:42;6.93;;;1.20;;
73512;SDS011;61754;55.008;73.348;2022-08-19T04:56:12;2.30;;;1.30;;
73512;SDS011;61754;55.008;73.348;2022-08-19T04:58:40;1.83;;;1.05;;
73512;SDS011;61754;55.008;73.348;2022-08-19T05:01:09;5.10;;;1.05;;
73512;SDS011;61754;55.008;73.348;2022-08-19T05:03:37;3.92;;;1.00;;
73512;SDS011;61754;55.008;73.348;2022-08-19T05:06:04;2.22;;;0.85;;
73512;SDS011;61754;55.008;73.348;2022-08-19T05:08:33;2.88;;;1.10;;
73512;SDS011;61754;55.008;73.348;2022-08-19T05:10:59;6.55;;;1.02;;
73512;SDS011;61754;55.008;73.348;2022-08-19T05:13:33;1.63;;;0.73;;
73512;SDS011;61754;55.008;73.348;2022-08-19T05:15:59;3.13;;;1.38;;
73512;SDS011;61754;55.008;73.348;2022-08-19T05:18:29;5.93;;;2.30;;
73512;SDS011;61754;55.008;73.348;2022-08-19T05:21:24;3.63;;;1.60;;
73512;SDS011;61754;55.008;73.348;2022-08-19T05:24:13;7.68;;;1.70;;
73512;SDS011;61754;55.008;73.348;2022-08-19T05:26:40;4.20;;;1.30;;
73512;SDS011;61754;55.008;73.348;2022-08-19T05:29:14;4.55;;;1.10;;
73512;SDS011;61754;55.008;73.348;2022-08-19T05:31:44;2.38;;;0.85;;
73512;SDS011;61754;55.008;73.348;2022-08-19T05:34:12;4.78;;;1.00;;
73512;SDS011;61754;55.008;73.348;2022-08-19T05:36:41;3.17;;;0.95;;
73512;SDS011;61754;55.008;73.348;2022-08-19T05:39:18;0.80;;;0.60;;
73512;SDS011;61754;55.008;73.348;2022-08-19T05:41:47;2.63;;;0.70;;
73512;SDS011;61754;55.008;73.348;2022-08-19T05:44:13;5.03;;;1.00;;
73512;SDS011;61754;55.008;73.348;2022-08-19T05:46:39;3.05;;;0.70;;
73512;SDS011;61754;55.008;73.348;2022-08-19T05:49:15;2.65;;;0.70;;
73512;SDS011;61754;55.008;73.348;2022-08-19T05:51:42;3.88;;;0.80;;
73512;SDS011;61754;55.008;73.348;2022-08-19T05:54:18;5.68;;;0.88;;
73512;SDS011;61754;55.008;73.348;2022-08-19T05:56:45;8.13;;;1.20;;
73512;SDS011;61754;55.008;73.348;2022-08-19T05:59:22;3.13;;;1.02;;
73512;SDS011;61754;55.008;73.348;2022-08-19T06:01:50;2.42;;;0.90;;
73512;SDS011;61754;55.008;73.348;2022-08-19T06:04:23;2.95;;;1.00;;
73512;SDS011;61754;55.008;73.348;2022-08-19T06:06:50;0.68;;;0.60;;
73512;SDS011;61754;55.008;73.348;2022-08-19T06:09:27;6.32;;;0.82;;
73512;SDS011;61754;55.008;73.348;2022-08-19T06:11:55;1.35;;;0.80;;
73512;SDS011;61754;55.008;73.348;2022-08-19T06:14:24;2.60;;;1.30;;
73512;SDS011;61754;55.008;73.348;2022-08-19T06:16:51;3.63;;;0.90;;
73512;SDS011;61754;55.008;73.348;2022-08-19T06:19:20;2.25;;;0.90;;
73512;SDS011;61754;55.008;73.348;2022-08-19T06:21:54;4.40;;;1.20;;
73512;SDS011;61754;55.008;73.348;2022-08-19T06:24:22;0.80;;;0.80;;
73512;SDS011;61754;55.008;73.348;2022-08-19T06:27:00;6.13;;;1.60;;
73512;SDS011;61754;55.008;73.348;2022-08-19T06:29:27;3.80;;;0.95;;
73512;SDS011;61754;55.008;73.348;2022-08-19T06:31:54;6.60;;;1.05;;
73512;SDS011;61754;55.008;73.348;2022-08-19T06:34:21;1.25;;;0.88;;
73512;SDS011;61754;55.008;73.348;2022-08-19T06:36:48;1.50;;;0.88;;
73512;SDS011;61754;55.008;73.348;2022-08-19T06:39:19;1.30;;;1.00;;
73512;SDS011;61754;55.008;73.348;2022-08-19T06:41:47;1.48;;;0.90;;
73512;SDS011;61754;55.008;73.348;2022-08-19T06:44:17;2.28;;;0.98;;
73512;SDS011;61754;55.008;73.348;2022-08-19T06:46:43;1.08;;;0.82;;
73512;SDS011;61754;55.008;73.348;2022-08-19T06:49:19;1.60;;;1.08;;
73512;SDS011;61754;55.008;73.348;2022-08-19T06:51:46;5.25;;;1.55;;
73512;SDS011;61754;55.008;73.348;2022-08-19T06:54:16;6.68;;;1.50;;
73512;SDS011;61754;55.008;73.348;2022-08-19T06:56:52;3.47;;;1.17;;
73512;SDS011;61754;55.008;73.348;2022-08-19T06:59:19;19.55;;;2.63;;
73512;SDS011;61754;55.008;73.348;2022-08-19T07:01:49;37.22;;;5.90;;
73512;SDS011;61754;55.008;73.348;2022-08-19T07:04:16;31.77;;;4.70;;
73512;SDS011;61754;55.008;73.348;2022-08-19T07:06:43;17.65;;;3.22;;
73512;SDS011;61754;55.008;73.348;2022-08-19T07:09:18;3.97;;;1.83;;
73512;SDS011;61754;55.008;73.348;2022-08-19T07:11:45;4.40;;;1.25;;
73512;SDS011;61754;55.008;73.348;2022-08-19T07:14:22;2.40;;;1.17;;
73512;SDS011;61754;55.008;73.348;2022-08-19T07:16:51;2.15;;;1.10;;
73512;SDS011;61754;55.008;73.348;2022-08-19T07:19:17;1.02;;;1.00;;
73512;SDS011;61754;55.008;73.348;2022-08-19T07:21:44;4.03;;;1.20;;
73512;SDS011;61754;55.008;73.348;2022-08-19T07:24:10;3.47;;;1.20;;
73512;SDS011;61754;55.008;73.348;2022-08-19T07:26:38;4.78;;;1.30;;
73512;SDS011;61754;55.008;73.348;2022-08-19T07:29:14;9.70;;;2.55;;
73512;SDS011;61754;55.008;73.348;2022-08-19T07:31:42;6.47;;;2.08;;
73512;SDS011;61754;55.008;73.348;2022-08-19T07:34:09;12.85;;;2.22;;
73512;SDS011;61754;55.008;73.348;2022-08-19T07:36:43;12.15;;;2.47;;
73512;SDS011;61754;55.008;73.348;2022-08-19T07:39:11;4.03;;;1.77;;
73512;SDS011;61754;55.008;73.348;2022-08-19T07:41:38;5.07;;;1.60;;
73512;SDS011;61754;55.008;73.348;2022-08-19T07:44:12;5.47;;;1.50;;
73512;SDS011;61754;55.008;73.348;2022-08-19T07:46:41;5.57;;;1.50;;
73512;SDS011;61754;55.008;73.348;2022-08-19T07:49:07;1.88;;;1.20;;
73512;SDS011;61754;55.008;73.348;2022-08-19T07:51:34;4.95;;;1.23;;
73512;SDS011;61754;55.008;73.348;2022-08-19T07:54:00;3.65;;;1.30;;
73512;SDS011;61754;55.008;73.348;2022-08-19T07:56:26;2.95;;;0.95;;
73512;SDS011;61754;55.008;73.348;2022-08-19T07:58:52;2.33;;;1.13;;
73512;SDS011;61754;55.008;73.348;2022-08-19T08:01:20;4.82;;;1.58;;
73512;SDS011;61754;55.008;73.348;2022-08-19T08:03:51;7.50;;;1.77;;
73512;SDS011;61754;55.008;73.348;2022-08-19T08:06:36;5.72;;;1.45;;
73512;SDS011;61754;55.008;73.348;2022-08-19T08:09:33;5.88;;;1.73;;
73512;SDS011;61754;55.008;73.348;2022-08-19T08:12:05;4.25;;;1.30;;
73512;SDS011;61754;55.008;73.348;2022-08-19T08:14:34;3.20;;;1.60;;
73512;SDS011;61754;55.008;73.348;2022-08-19T08:17:05;3.97;;;1.35;;
73512;SDS011;61754;55.008;73.348;2022-08-19T08:19:32;6.35;;;2.58;;
73512;SDS011;61754;55.008;73.348;2022-08-19T08:21:59;8.50;;;2.45;;
73512;SDS011;61754;55.008;73.348;2022-08-19T08:24:28;14.80;;;2.63;;
73512;SDS011;61754;55.008;73.348;2022-08-19T08:27:04;17.65;;;2.50;;
73512;SDS011;61754;55.008;73.348;2022-08-19T08:29:30;11.60;;;2.78;;
73512;SDS011;61754;55.008;73.348;2022-08-19T08:31:57;14.48;;;3.53;;
73512;SDS011;61754;55.008;73.348;2022-08-19T08:34:33;26.48;;;5.78;;
73512;SDS011;61754;55.008;73.348;2022-08-19T08:37:04;20.15;;;5.15;;
73512;SDS011;61754;55.008;73.348;2022-08-19T08:39:32;14.80;;;4.50;;
73512;SDS011;61754;55.008;73.348;2022-08-19T08:42:11;8.40;;;3.22;;
73512;SDS011;61754;55.008;73.348;2022-08-19T08:44:52;16.77;;;4.93;;
73512;SDS011;61754;55.008;73.348;2022-08-19T08:47:20;16.92;;;3.78;;
73512;SDS011;61754;55.008;73.348;2022-08-19T08:52:24;20.30;;;4.15;;
73512;SDS011;61754;55.008;73.348;2022-08-19T08:54:52;21.10;;;5.22;;
73512;SDS011;61754;55.008;73.348;2022-08-19T08:59:51;21.33;;;5.65;;
73512;SDS011;61754;55.008;73.348;2022-08-19T09:02:19;36.92;;;6.05;;
73512;SDS011;61754;55.008;73.348;2022-08-19T09:04:45;25.38;;;5.55;;
73512;SDS011;61754;55.008;73.348;2022-08-19T09:09:41;34.13;;;7.22;;
73512;SDS011;61754;55.008;73.348;2022-08-19T09:14:56;14.57;;;3.60;;
73512;SDS011;61754;55.008;73.348;2022-08-19T09:17:33;7.03;;;3.03;;
73512;SDS011;61754;55.008;73.348;2022-08-19T09:22:43;11.30;;;3.25;;
73512;SDS011;61754;55.008;73.348;2022-08-19T09:25:10;12.70;;;3.90;;
73512;SDS011;61754;55.008;73.348;2022-08-19T09:27:47;17.20;;;3.75;;
73512;SDS011;61754;55.008;73.348;2022-08-19T09:30:26;25.45;;;4.55;;
73512;SDS011;61754;55.008;73.348;2022-08-19T09:32:52;24.23;;;4.43;;
73512;SDS011;61754;55.008;73.348;2022-08-19T09:35:19;10.18;;;3.28;;
73512;SDS011;61754;55.008;73.348;2022-08-19T09:37:47;11.10;;;3.75;;
73512;SDS011;61754;55.008;73.348;2022-08-19T09:40:14;17.75;;;3.75;;
73512;SDS011;61754;55.008;73.348;2022-08-19T09:42:51;7.70;;;3.70;;
73512;SDS011;61754;55.008;73.348;2022-08-19T09:45:18;9.60;;;3.88;;
73512;SDS011;61754;55.008;73.348;2022-08-19T09:47:46;5.80;;;4.40;;
73512;SDS011;61754;55.008;73.348;2022-08-19T09:50:13;16.00;;;4.03;;
73512;SDS011;61754;55.008;73.348;2022-08-19T09:52:39;7.28;;;4.25;;
73512;SDS011;61754;55.008;73.348;2022-08-19T09:55:06;6.43;;;3.78;;
73512;SDS011;61754;55.008;73.348;2022-08-19T09:57:33;7.85;;;4.07;;
73512;SDS011;61754;55.008;73.348;2022-08-19T09:59:59;5.38;;;3.65;;
73512;SDS011;61754;55.008;73.348;2022-08-19T10:02:25;4.47;;;4.07;;
73512;SDS011;61754;55.008;73.348;2022-08-19T10:04:51;7.65;;;4.78;;
73512;SDS011;61754;55.008;73.348;2022-08-19T10:07:36;6.90;;;4.78;;
73512;SDS011;61754;55.008;73.348;2022-08-19T10:10:03;6.43;;;4.10;;
73512;SDS011;61754;55.008;73.348;2022-08-19T10:12:40;6.93;;;5.25;;
73512;SDS011;61754;55.008;73.348;2022-08-19T10:15:07;10.02;;;5.03;;
73512;SDS011;61754;55.008;73.348;2022-08-19T10:17:33;6.80;;;5.40;;
73512;SDS011;61754;55.008;73.348;2022-08-19T10:20:01;7.18;;;4.32;;
73512;SDS011;61754;55.008;73.348;2022-08-19T10:22:29;6.07;;;4.72;;
73512;SDS011;61754;55.008;73.348;2022-08-19T10:24:55;6.32;;;4.50;;
73512;SDS011;61754;55.008;73.348;2022-08-19T10:27:22;6.82;;;4.72;;
73512;SDS011;61754;55.008;73.348;2022-08-19T10:29:48;5.10;;;4.50;;
73512;SDS011;61754;55.008;73.348;2022-08-19T10:32:14;5.13;;;4.40;;
73512;SDS011;61754;55.008;73.348;2022-08-19T10:34:40;8.50;;;4.32;;
73512;SDS011;61754;55.008;73.348;2022-08-19T10:37:11;5.22;;;4.28;;
73512;SDS011;61754;55.008;73.348;2022-08-19T10:39:37;4.85;;;4.05;;
73512;SDS011;61754;55.008;73.348;2022-08-19T10:42:04;8.45;;;4.25;;
73512;SDS011;61754;55.008;73.348;2022-08-19T10:44:31;5.00;;;3.90;;
73512;SDS011;61754;55.008;73.348;2022-08-19T10:47:03;8.13;;;3.60;;
73512;SDS011;61754;55.008;73.348;2022-08-19T10:49:29;3.60;;;3.10;;
73512;SDS011;61754;55.008;73.348;2022-08-19T10:51:56;5.50;;;2.90;;
73512;SDS011;61754;55.008;73.348;2022-08-19T10:54:41;6.30;;;3.42;;
73512;SDS011;61754;55.008;73.348;2022-08-19T10:57:25;3.60;;;2.92;;
73512;SDS011;61754;55.008;73.348;2022-08-19T10:59:57;5.35;;;2.63;;
73512;SDS011;61754;55.008;73.348;2022-08-19T11:02:33;2.97;;;2.67;;
73512;SDS011;61754;55.008;73.348;2022-08-19T11:05:09;6.93;;;3.17;;
73512;SDS011;61754;55.008;73.348;2022-08-19T11:07:37;8.00;;;2.90;;
73512;SDS011;61754;55.008;73.348;2022-08-19T11:10:03;4.63;;;2.90;;
73512;SDS011;61754;55.008;73.348;2022-08-19T11:12:30;3.92;;;2.20;;
73512;SDS011;61754;55.008;73.348;2022-08-19T11:14:56;4.10;;;2.50;;
73512;SDS011;61754;55.008;73.348;2022-08-19T11:17:32;4.60;;;2.78;;
73512;SDS011;61754;55.008;73.348;2022-08-19T11:19:58;2.58;;;2.38;;
73512;SDS011;61754;55.008;73.348;2022-08-19T11:22:29;4.05;;;2.33;;
73512;SDS011;61754;55.008;73.348;2022-08-19T11:24:55;8.02;;;2.72;;
73512;SDS011;61754;55.008;73.348;2022-08-19T11:27:21;2.90;;;2.35;;
73512;SDS011;61754;55.008;73.348;2022-08-19T11:29:47;4.15;;;2.63;;
73512;SDS011;61754;55.008;73.348;2022-08-19T11:32:13;2.85;;;2.42;;
73512;SDS011;61754;55.008;73.348;2022-08-19T11:34:41;7.70;;;3.50;;
73512;SDS011;61754;55.008;73.348;2022-08-19T11:37:07;7.97;;;3.35;;
73512;SDS011;61754;55.008;73.348;2022-08-19T11:39:34;6.07;;;3.50;;
73512;SDS011;61754;55.008;73.348;2022-08-19T11:42:02;7.55;;;3.40;;
73512;SDS011;61754;55.008;73.348;2022-08-19T11:44:59;3.28;;;2.97;;
73512;SDS011;61754;55.008;73.348;2022-08-19T11:47:26;3.33;;;2.97;;
73512;SDS011;61754;55.008;73.348;2022-08-19T11:49:52;4.07;;;3.00;;
73512;SDS011;61754;55.008;73.348;2022-08-19T11:52:19;2.97;;;2.75;;
73512;SDS011;61754;55.008;73.348;2022-08-19T11:54:50;3.72;;;2.60;;
73512;SDS011;61754;55.008;73.348;2022-08-19T11:57:16;4.88;;;2.90;;
73512;SDS011;61754;55.008;73.348;2022-08-19T11:59:47;2.67;;;2.47;;
73512;SDS011;61754;55.008;73.348;2022-08-19T12:02:13;2.70;;;2.50;;
73512;SDS011;61754;55.008;73.348;2022-08-19T12:04:40;3.80;;;2.97;;
73512;SDS011;61754;55.008;73.348;2022-08-19T12:07:06;3.25;;;2.95;;
73512;SDS011;61754;55.008;73.348;2022-08-19T12:09:33;4.70;;;2.55;;
73512;SDS011;61754;55.008;73.348;2022-08-19T12:12:09;3.30;;;2.95;;
73512;SDS011;61754;55.008;73.348;2022-08-19T12:14:35;3.80;;;3.15;;
73512;SDS011;61754;55.008;73.348;2022-08-19T12:17:01;3.88;;;3.13;;
73512;SDS011;61754;55.008;73.348;2022-08-19T12:19:29;3.30;;;3.03;;
73512;SDS011;61754;55.008;73.348;2022-08-19T12:21:58;3.70;;;3.30;;
73512;SDS011;61754;55.008;73.348;2022-08-19T12:24:25;3.15;;;2.85;;
73512;SDS011;61754;55.008;73.348;2022-08-19T12:26:51;4.43;;;2.97;;
73512;SDS011;61754;55.008;73.348;2022-08-19T12:29:17;6.90;;;3.08;;
73512;SDS011;61754;55.008;73.348;2022-08-19T12:31:43;5.63;;;3.53;;
73512;SDS011;61754;55.008;73.348;2022-08-19T12:34:09;6.53;;;3.58;;
73512;SDS011;61754;55.008;73.348;2022-08-19T12:36:35;5.22;;;3.58;;
73512;SDS011;61754;55.008;73.348;2022-08-19T12:39:01;7.93;;;4.22;;
73512;SDS011;61754;55.008;73.348;2022-08-19T12:41:27;9.45;;;4.63;;
73512;SDS011;61754;55.008;73.348;2022-08-19T12:43:53;4.95;;;3.70;;
73512;SDS011;61754;55.008;73.348;2022-08-19T12:46:23;7.03;;;3.33;;
73512;SDS011;61754;55.008;73.348;2022-08-19T12:48:49;4.63;;;3.22;;
73512;SDS011;61754;55.008;73.348;2022-08-19T12:51:16;6.57;;;3.58;;
73512;SDS011;61754;55.008;73.348;2022-08-19T12:53:43;4.03;;;3.30;;
73512;SDS011;61754;55.008;73.348;2022-08-19T12:56:10;5.57;;;3.95;;
73512;SDS011;61754;55.008;73.348;2022-08-19T12:58:36;5.88;;;3.28;;
73512;SDS011;61754;55.008;73.348;2022-08-19T13:01:06;4.93;;;3.45;;
73512;SDS011;61754;55.008;73.348;2022-08-19T13:03:32;7.45;;;3.92;;
73512;SDS011;61754;55.008;73.348;2022-08-19T13:05:58;5.90;;;3.50;;
73512;SDS011;61754;55.008;73.348;2022-08-19T13:08:24;9.38;;;4.78;;
73512;SDS011;61754;55.008;73.348;2022-08-19T13:10:50;8.95;;;4.15;;
73512;SDS011;61754;55.008;73.348;2022-08-19T13:13:16;9.57;;;5.30;;
73512;SDS011;61754;55.008;73.348;2022-08-19T13:15:52;6.32;;;3.47;;
73512;SDS011;61754;55.008;73.348;2022-08-19T13:18:25;4.75;;;3.08;;
73512;SDS011;61754;55.008;73.348;2022-08-19T13:20:51;6.53;;;3.20;;
73512;SDS011;61754;55.008;73.348;2022-08-19T13:23:18;5.10;;;2.92;;
73512;SDS011;61754;55.008;73.348;2022-08-19T13:25:44;8.07;;;3.00;;
73512;SDS011;61754;55.008;73.348;2022-08-19T13:28:11;7.45;;;4.03;;
73512;SDS011;61754;55.008;73.348;2022-08-19T13:30:47;11.05;;;4.72;;
73512;SDS011;61754;55.008;73.348;2022-08-19T13:33:31;5.60;;;3.28;;
73512;SDS011;61754;55.008;73.348;2022-08-19T13:35:59;5.82;;;3.10;;
73512;SDS011;61754;55.008;73.348;2022-08-19T13:38:27;4.65;;;3.30;;
73512;SDS011;61754;55.008;73.348;2022-08-19T13:41:03;8.65;;;2.88;;
73512;SDS011;61754;55.008;73.348;2022-08-19T13:43:29;6.53;;;2.85;;
73512;SDS011;61754;55.008;73.348;2022-08-19T13:45:55;4.63;;;3.50;;
73512;SDS011;61754;55.008;73.348;2022-08-19T13:48:21;5.15;;;3.17;;
73512;SDS011;61754;55.008;73.348;2022-08-19T13:50:57;6.78;;;4.00;;
73512;SDS011;61754;55.008;73.348;2022-08-19T13:53:24;6.90;;;4.45;;
73512;SDS011;61754;55.008;73.348;2022-08-19T13:55:50;5.63;;;4.07;;
73512;SDS011;61754;55.008;73.348;2022-08-19T13:58:21;10.75;;;4.95;;
73512;SDS011;61754;55.008;73.348;2022-08-19T14:00:58;8.15;;;4.70;;
73512;SDS011;61754;55.008;73.348;2022-08-19T14:03:25;7.43;;;4.68;;
73512;SDS011;61754;55.008;73.348;2022-08-19T14:05:56;10.10;;;5.65;;
73512;SDS011;61754;55.008;73.348;2022-08-19T14:08:22;8.85;;;5.18;;
73512;SDS011;61754;55.008;73.348;2022-08-19T14:10:54;11.87;;;5.50;;
73512;SDS011;61754;55.008;73.348;2022-08-19T14:13:21;8.00;;;5.65;;
73512;SDS011;61754;55.008;73.348;2022-08-19T14:15:48;8.65;;;5.40;;
73512;SDS011;61754;55.008;73.348;2022-08-19T14:18:19;8.73;;;4.88;;
73512;SDS011;61754;55.008;73.348;2022-08-19T14:20:45;7.15;;;5.05;;
73512;SDS011;61754;55.008;73.348;2022-08-19T14:23:20;12.00;;;5.65;;
73512;SDS011;61754;55.008;73.348;2022-08-19T14:25:46;7.85;;;5.10;;
73512;SDS011;61754;55.008;73.348;2022-08-19T14:28:12;10.65;;;5.18;;
73512;SDS011;61754;55.008;73.348;2022-08-19T14:30:38;8.38;;;5.15;;
73512;SDS011;61754;55.008;73.348;2022-08-19T14:33:20;8.20;;;4.93;;
73512;SDS011;61754;55.008;73.348;2022-08-19T14:35:46;10.60;;;5.55;;
73512;SDS011;61754;55.008;73.348;2022-08-19T14:38:18;11.40;;;5.90;;
73512;SDS011;61754;55.008;73.348;2022-08-19T14:40:51;9.68;;;5.55;;
73512;SDS011;61754;55.008;73.348;2022-08-19T14:43:18;12.45;;;5.55;;
73512;SDS011;61754;55.008;73.348;2022-08-19T14:45:48;9.70;;;6.03;;
73512;SDS011;61754;55.008;73.348;2022-08-19T14:48:19;8.10;;;5.95;;
73512;SDS011;61754;55.008;73.348;2022-08-19T14:50:56;9.18;;;6.07;;
73512;SDS011;61754;55.008;73.348;2022-08-19T14:53:22;7.30;;;5.88;;
73512;SDS011;61754;55.008;73.348;2022-08-19T14:55:48;13.52;;;6.28;;
73512;SDS011;61754;55.008;73.348;2022-08-19T14:58:23;8.95;;;5.45;;